sensor_id;sensor_type;location;lat;lon;timestamp;P1;durP1;ratioP1;P2;durP2;ratioP2
26536;SDS011;14204;51.262;5.488;2023-04-25T00:00:28;24.77;;;8.82;;
26536;SDS011;14204;51.262;5.488;2023-04-25T00:02:54;24.40;;;8.43;;
26536;SDS011;14204;51.262;5.488;2023-04-25T00:05:22;21.48;;;8.70;;
26536;SDS011;14204;51.262;5.488;2023-04-25T00:07:49;23.23;;;8.23;;
26536;SDS011;14204;51.262;5.488;2023-04-25T00:10:15;26.45;;;8.13;;
26536;SDS011;14204;51.262;5.488;2023-04-25T00:12:41;24.75;;;8.90;;
26536;SDS011;14204;51.262;5.488;2023-04-25T00:15:07;20.02;;;7.88;;
26536;SDS011;14204;51.262;5.488;2023-04-25T00:17:33;23.98;;;8.57;;
26536;SDS011;14204;51.262;5.488;2023-04-25T00:20:01;28.60;;;8.77;;
26536;SDS011;14204;51.262;5.488;2023-04-25T00:22:30;21.90;;;8.95;;
26536;SDS011;14204;51.262;5.488;2023-04-25T00:24:56;18.98;;;8.32;;
26536;SDS011;14204;51.262;5.488;2023-04-25T00:27:25;23.42;;;8.25;;
26536;SDS011;14204;51.262;5.488;2023-04-25T00:29:51;22.13;;;8.00;;
26536;SDS011;14204;51.262;5.488;2023-04-25T00:32:17;19.17;;;6.95;;
26536;SDS011;14204;51.262;5.488;2023-04-25T00:34:42;15.98;;;6.55;;
26536;SDS011;14204;51.262;5.488;2023-04-25T00:37:08;16.98;;;6.72;;
26536;SDS011;14204;51.262;5.488;2023-04-25T00:39:34;19.92;;;6.80;;
26536;SDS011;14204;51.262;5.488;2023-04-25T00:42:00;20.63;;;7.15;;
26536;SDS011;14204;51.262;5.488;2023-04-25T00:44:27;20.05;;;7.38;;
26536;SDS011;14204;51.262;5.488;2023-04-25T00:46:54;27.23;;;8.77;;
26536;SDS011;14204;51.262;5.488;2023-04-25T00:49:20;20.95;;;7.70;;
26536;SDS011;14204;51.262;5.488;2023-04-25T00:51:46;20.10;;;8.52;;
26536;SDS011;14204;51.262;5.488;2023-04-25T00:54:13;22.10;;;8.02;;
26536;SDS011;14204;51.262;5.488;2023-04-25T00:56:39;24.30;;;8.75;;
26536;SDS011;14204;51.262;5.488;2023-04-25T00:59:05;17.67;;;7.75;;
26536;SDS011;14204;51.262;5.488;2023-04-25T01:01:31;29.65;;;9.13;;
26536;SDS011;14204;51.262;5.488;2023-04-25T01:03:58;25.88;;;9.40;;
26536;SDS011;14204;51.262;5.488;2023-04-25T01:06:24;28.80;;;9.35;;
26536;SDS011;14204;51.262;5.488;2023-04-25T01:08:50;24.08;;;9.60;;
26536;SDS011;14204;51.262;5.488;2023-04-25T01:11:16;17.48;;;8.73;;
26536;SDS011;14204;51.262;5.488;2023-04-25T01:13:42;23.48;;;9.68;;
26536;SDS011;14204;51.262;5.488;2023-04-25T01:16:08;28.45;;;8.68;;
26536;SDS011;14204;51.262;5.488;2023-04-25T01:18:33;18.90;;;7.63;;
26536;SDS011;14204;51.262;5.488;2023-04-25T01:21:06;25.00;;;7.70;;
26536;SDS011;14204;51.262;5.488;2023-04-25T01:23:37;18.92;;;7.22;;
26536;SDS011;14204;51.262;5.488;2023-04-25T01:26:06;20.50;;;8.57;;
26536;SDS011;14204;51.262;5.488;2023-04-25T01:28:33;21.63;;;7.63;;
26536;SDS011;14204;51.262;5.488;2023-04-25T01:31:00;24.77;;;8.05;;
26536;SDS011;14204;51.262;5.488;2023-04-25T01:33:26;19.48;;;7.75;;
26536;SDS011;14204;51.262;5.488;2023-04-25T01:35:52;23.75;;;8.98;;
26536;SDS011;14204;51.262;5.488;2023-04-25T01:38:18;23.08;;;9.55;;
26536;SDS011;14204;51.262;5.488;2023-04-25T01:40:44;24.63;;;8.10;;
26536;SDS011;14204;51.262;5.488;2023-04-25T01:43:12;18.23;;;9.35;;
26536;SDS011;14204;51.262;5.488;2023-04-25T01:45:39;29.58;;;10.07;;
26536;SDS011;14204;51.262;5.488;2023-04-25T01:48:09;25.15;;;8.93;;
26536;SDS011;14204;51.262;5.488;2023-04-25T01:50:37;25.65;;;8.75;;
26536;SDS011;14204;51.262;5.488;2023-04-25T01:53:03;24.30;;;9.00;;
26536;SDS011;14204;51.262;5.488;2023-04-25T01:55:29;35.70;;;9.10;;
26536;SDS011;14204;51.262;5.488;2023-04-25T01:57:55;22.80;;;8.63;;
26536;SDS011;14204;51.262;5.488;2023-04-25T02:00:21;25.70;;;9.32;;
26536;SDS011;14204;51.262;5.488;2023-04-25T02:02:47;24.33;;;9.13;;
26536;SDS011;14204;51.262;5.488;2023-04-25T02:05:15;29.08;;;9.38;;
26536;SDS011;14204;51.262;5.488;2023-04-25T02:07:41;29.17;;;9.35;;
26536;SDS011;14204;51.262;5.488;2023-04-25T02:10:07;22.73;;;8.60;;
26536;SDS011;14204;51.262;5.488;2023-04-25T02:12:35;24.60;;;9.88;;
26536;SDS011;14204;51.262;5.488;2023-04-25T02:15:01;21.75;;;8.38;;
26536;SDS011;14204;51.262;5.488;2023-04-25T02:17:27;24.38;;;8.98;;
26536;SDS011;14204;51.262;5.488;2023-04-25T02:19:52;25.67;;;9.00;;
26536;SDS011;14204;51.262;5.488;2023-04-25T02:22:18;23.98;;;9.02;;
26536;SDS011;14204;51.262;5.488;2023-04-25T02:24:45;23.15;;;7.63;;
26536;SDS011;14204;51.262;5.488;2023-04-25T02:27:11;24.33;;;9.60;;
26536;SDS011;14204;51.262;5.488;2023-04-25T02:29:37;23.75;;;9.70;;
26536;SDS011;14204;51.262;5.488;2023-04-25T02:32:03;24.73;;;9.02;;
26536;SDS011;14204;51.262;5.488;2023-04-25T02:34:29;25.55;;;9.45;;
26536;SDS011;14204;51.262;5.488;2023-04-25T02:36:54;22.73;;;8.85;;
26536;SDS011;14204;51.262;5.488;2023-04-25T02:39:20;25.58;;;9.73;;
26536;SDS011;14204;51.262;5.488;2023-04-25T02:41:47;24.15;;;9.18;;
26536;SDS011;14204;51.262;5.488;2023-04-25T02:44:12;24.30;;;10.05;;
26536;SDS011;14204;51.262;5.488;2023-04-25T02:46:38;29.52;;;10.27;;
26536;SDS011;14204;51.262;5.488;2023-04-25T02:49:04;29.58;;;9.25;;
26536;SDS011;14204;51.262;5.488;2023-04-25T02:51:30;27.90;;;9.25;;
26536;SDS011;14204;51.262;5.488;2023-04-25T02:53:56;22.13;;;8.90;;
26536;SDS011;14204;51.262;5.488;2023-04-25T02:56:22;23.55;;;9.95;;
26536;SDS011;14204;51.262;5.488;2023-04-25T02:58:47;35.88;;;11.30;;
26536;SDS011;14204;51.262;5.488;2023-04-25T03:01:13;33.47;;;11.68;;
26536;SDS011;14204;51.262;5.488;2023-04-25T03:03:39;28.50;;;11.57;;
26536;SDS011;14204;51.262;5.488;2023-04-25T03:06:05;23.38;;;10.38;;
26536;SDS011;14204;51.262;5.488;2023-04-25T03:08:30;26.00;;;10.73;;
26536;SDS011;14204;51.262;5.488;2023-04-25T03:10:57;24.83;;;10.57;;
26536;SDS011;14204;51.262;5.488;2023-04-25T03:13:24;28.92;;;10.73;;
26536;SDS011;14204;51.262;5.488;2023-04-25T03:15:49;29.65;;;9.82;;
26536;SDS011;14204;51.262;5.488;2023-04-25T03:18:15;24.98;;;9.93;;
26536;SDS011;14204;51.262;5.488;2023-04-25T03:20:41;26.83;;;10.93;;
26536;SDS011;14204;51.262;5.488;2023-04-25T03:23:07;26.33;;;10.50;;
26536;SDS011;14204;51.262;5.488;2023-04-25T03:25:33;31.67;;;11.13;;
26536;SDS011;14204;51.262;5.488;2023-04-25T03:27:59;26.42;;;10.05;;
26536;SDS011;14204;51.262;5.488;2023-04-25T03:30:25;22.95;;;9.10;;
26536;SDS011;14204;51.262;5.488;2023-04-25T03:32:50;28.50;;;10.13;;
26536;SDS011;14204;51.262;5.488;2023-04-25T03:35:16;25.20;;;8.98;;
26536;SDS011;14204;51.262;5.488;2023-04-25T03:37:42;27.33;;;10.85;;
26536;SDS011;14204;51.262;5.488;2023-04-25T03:40:10;27.17;;;9.93;;
26536;SDS011;14204;51.262;5.488;2023-04-25T03:42:36;31.15;;;9.90;;
26536;SDS011;14204;51.262;5.488;2023-04-25T03:45:02;25.50;;;9.60;;
26536;SDS011;14204;51.262;5.488;2023-04-25T03:47:28;25.38;;;9.75;;
26536;SDS011;14204;51.262;5.488;2023-04-25T03:49:54;26.27;;;9.60;;
26536;SDS011;14204;51.262;5.488;2023-04-25T03:52:20;23.45;;;9.60;;
26536;SDS011;14204;51.262;5.488;2023-04-25T03:54:46;30.00;;;10.05;;
26536;SDS011;14204;51.262;5.488;2023-04-25T03:57:11;22.95;;;9.05;;
26536;SDS011;14204;51.262;5.488;2023-04-25T03:59:37;20.42;;;9.75;;
26536;SDS011;14204;51.262;5.488;2023-04-25T04:02:03;29.33;;;10.30;;
26536;SDS011;14204;51.262;5.488;2023-04-25T04:04:29;23.48;;;9.77;;
26536;SDS011;14204;51.262;5.488;2023-04-25T04:06:55;22.73;;;9.45;;
26536;SDS011;14204;51.262;5.488;2023-04-25T04:09:20;24.20;;;9.82;;
26536;SDS011;14204;51.262;5.488;2023-04-25T04:11:46;28.05;;;10.10;;
26536;SDS011;14204;51.262;5.488;2023-04-25T04:14:12;23.38;;;8.75;;
26536;SDS011;14204;51.262;5.488;2023-04-25T04:16:38;30.25;;;9.20;;
26536;SDS011;14204;51.262;5.488;2023-04-25T04:19:04;27.98;;;9.40;;
26536;SDS011;14204;51.262;5.488;2023-04-25T04:21:30;18.70;;;8.82;;
26536;SDS011;14204;51.262;5.488;2023-04-25T04:23:57;22.50;;;8.85;;
26536;SDS011;14204;51.262;5.488;2023-04-25T04:26:25;25.15;;;9.95;;
26536;SDS011;14204;51.262;5.488;2023-04-25T04:28:51;35.22;;;10.25;;
26536;SDS011;14204;51.262;5.488;2023-04-25T04:31:19;26.90;;;9.00;;
26536;SDS011;14204;51.262;5.488;2023-04-25T04:33:48;28.67;;;10.38;;
26536;SDS011;14204;51.262;5.488;2023-04-25T04:36:15;28.73;;;9.05;;
26536;SDS011;14204;51.262;5.488;2023-04-25T04:38:40;29.17;;;10.20;;
26536;SDS011;14204;51.262;5.488;2023-04-25T04:41:07;25.88;;;10.25;;
26536;SDS011;14204;51.262;5.488;2023-04-25T04:43:33;28.27;;;10.45;;
26536;SDS011;14204;51.262;5.488;2023-04-25T04:46:02;24.15;;;9.75;;
26536;SDS011;14204;51.262;5.488;2023-04-25T04:48:29;29.45;;;9.90;;
26536;SDS011;14204;51.262;5.488;2023-04-25T04:50:57;29.83;;;9.65;;
26536;SDS011;14204;51.262;5.488;2023-04-25T04:53:23;31.20;;;9.60;;
26536;SDS011;14204;51.262;5.488;2023-04-25T04:55:49;32.35;;;10.18;;
26536;SDS011;14204;51.262;5.488;2023-04-25T04:58:15;28.27;;;9.88;;
26536;SDS011;14204;51.262;5.488;2023-04-25T05:00:41;32.05;;;9.63;;
26536;SDS011;14204;51.262;5.488;2023-04-25T05:03:06;25.33;;;10.20;;
26536;SDS011;14204;51.262;5.488;2023-04-25T05:05:32;30.52;;;11.48;;
26536;SDS011;14204;51.262;5.488;2023-04-25T05:07:58;26.38;;;10.00;;
26536;SDS011;14204;51.262;5.488;2023-04-25T05:10:23;31.77;;;10.52;;
26536;SDS011;14204;51.262;5.488;2023-04-25T05:12:50;27.85;;;10.18;;
26536;SDS011;14204;51.262;5.488;2023-04-25T05:15:16;34.35;;;11.27;;
26536;SDS011;14204;51.262;5.488;2023-04-25T05:17:41;23.70;;;11.07;;
26536;SDS011;14204;51.262;5.488;2023-04-25T05:20:07;33.47;;;10.93;;
26536;SDS011;14204;51.262;5.488;2023-04-25T05:22:34;33.38;;;11.73;;
26536;SDS011;14204;51.262;5.488;2023-04-25T05:25:00;35.58;;;11.88;;
26536;SDS011;14204;51.262;5.488;2023-04-25T05:27:26;27.75;;;10.93;;
26536;SDS011;14204;51.262;5.488;2023-04-25T05:29:52;32.53;;;12.25;;
26536;SDS011;14204;51.262;5.488;2023-04-25T05:32:18;28.35;;;10.85;;
26536;SDS011;14204;51.262;5.488;2023-04-25T05:34:43;34.05;;;10.90;;
26536;SDS011;14204;51.262;5.488;2023-04-25T05:37:09;26.52;;;10.73;;
26536;SDS011;14204;51.262;5.488;2023-04-25T05:39:35;24.05;;;9.85;;
26536;SDS011;14204;51.262;5.488;2023-04-25T05:42:01;33.17;;;10.88;;
26536;SDS011;14204;51.262;5.488;2023-04-25T05:44:27;32.30;;;11.45;;
26536;SDS011;14204;51.262;5.488;2023-04-25T05:46:53;33.13;;;10.57;;
26536;SDS011;14204;51.262;5.488;2023-04-25T05:49:18;25.45;;;11.02;;
26536;SDS011;14204;51.262;5.488;2023-04-25T05:51:44;29.63;;;11.02;;
26536;SDS011;14204;51.262;5.488;2023-04-25T05:54:10;34.25;;;10.30;;
26536;SDS011;14204;51.262;5.488;2023-04-25T05:56:36;31.05;;;9.68;;
26536;SDS011;14204;51.262;5.488;2023-04-25T05:59:01;28.50;;;10.23;;
26536;SDS011;14204;51.262;5.488;2023-04-25T06:01:28;24.10;;;9.60;;
26536;SDS011;14204;51.262;5.488;2023-04-25T06:03:53;31.38;;;10.43;;
26536;SDS011;14204;51.262;5.488;2023-04-25T06:06:19;43.20;;;11.52;;
26536;SDS011;14204;51.262;5.488;2023-04-25T06:08:44;59.97;;;12.75;;
26536;SDS011;14204;51.262;5.488;2023-04-25T06:11:10;45.72;;;10.70;;
26536;SDS011;14204;51.262;5.488;2023-04-25T06:13:36;39.78;;;11.13;;
26536;SDS011;14204;51.262;5.488;2023-04-25T06:16:02;32.33;;;10.05;;
26536;SDS011;14204;51.262;5.488;2023-04-25T06:18:28;35.58;;;10.80;;
26536;SDS011;14204;51.262;5.488;2023-04-25T06:20:54;38.40;;;10.25;;
26536;SDS011;14204;51.262;5.488;2023-04-25T06:23:19;28.17;;;9.45;;
26536;SDS011;14204;51.262;5.488;2023-04-25T06:25:45;28.35;;;11.05;;
26536;SDS011;14204;51.262;5.488;2023-04-25T06:28:11;36.65;;;10.45;;
26536;SDS011;14204;51.262;5.488;2023-04-25T06:30:36;37.85;;;10.80;;
26536;SDS011;14204;51.262;5.488;2023-04-25T06:33:02;58.63;;;11.57;;
26536;SDS011;14204;51.262;5.488;2023-04-25T06:35:28;352.55;;;41.08;;
26536;SDS011;14204;51.262;5.488;2023-04-25T06:37:54;71.85;;;15.05;;
26536;SDS011;14204;51.262;5.488;2023-04-25T06:40:19;30.08;;;9.50;;
26536;SDS011;14204;51.262;5.488;2023-04-25T06:42:45;114.60;;;16.30;;
26536;SDS011;14204;51.262;5.488;2023-04-25T06:45:11;38.20;;;10.35;;
26536;SDS011;14204;51.262;5.488;2023-04-25T06:47:37;37.58;;;10.90;;
26536;SDS011;14204;51.262;5.488;2023-04-25T06:50:02;35.90;;;9.63;;
26536;SDS011;14204;51.262;5.488;2023-04-25T06:52:29;26.85;;;9.02;;
26536;SDS011;14204;51.262;5.488;2023-04-25T06:54:54;30.20;;;9.27;;
26536;SDS011;14204;51.262;5.488;2023-04-25T06:57:20;32.00;;;9.48;;
26536;SDS011;14204;51.262;5.488;2023-04-25T06:59:46;29.05;;;10.63;;
26536;SDS011;14204;51.262;5.488;2023-04-25T07:02:11;33.03;;;9.38;;
26536;SDS011;14204;51.262;5.488;2023-04-25T07:04:37;22.08;;;8.68;;
26536;SDS011;14204;51.262;5.488;2023-04-25T07:07:03;26.17;;;8.65;;
26536;SDS011;14204;51.262;5.488;2023-04-25T07:09:28;19.58;;;6.35;;
26536;SDS011;14204;51.262;5.488;2023-04-25T07:11:55;24.30;;;6.47;;
26536;SDS011;14204;51.262;5.488;2023-04-25T07:14:21;20.17;;;4.65;;
26536;SDS011;14204;51.262;5.488;2023-04-25T07:16:47;18.70;;;4.75;;
26536;SDS011;14204;51.262;5.488;2023-04-25T07:19:13;19.27;;;4.60;;
26536;SDS011;14204;51.262;5.488;2023-04-25T07:21:39;19.20;;;4.35;;
26536;SDS011;14204;51.262;5.488;2023-04-25T07:24:05;11.27;;;3.30;;
26536;SDS011;14204;51.262;5.488;2023-04-25T07:26:31;11.02;;;3.67;;
26536;SDS011;14204;51.262;5.488;2023-04-25T07:28:56;14.65;;;3.65;;
26536;SDS011;14204;51.262;5.488;2023-04-25T07:31:22;14.82;;;3.65;;
26536;SDS011;14204;51.262;5.488;2023-04-25T07:33:48;12.43;;;3.88;;
26536;SDS011;14204;51.262;5.488;2023-04-25T07:36:14;9.68;;;2.90;;
26536;SDS011;14204;51.262;5.488;2023-04-25T07:38:40;12.52;;;3.17;;
26536;SDS011;14204;51.262;5.488;2023-04-25T07:41:06;12.88;;;3.38;;
26536;SDS011;14204;51.262;5.488;2023-04-25T07:43:32;11.63;;;3.10;;
26536;SDS011;14204;51.262;5.488;2023-04-25T07:45:58;15.05;;;2.88;;
26536;SDS011;14204;51.262;5.488;2023-04-25T07:48:23;12.40;;;3.05;;
26536;SDS011;14204;51.262;5.488;2023-04-25T07:50:49;9.90;;;2.65;;
26536;SDS011;14204;51.262;5.488;2023-04-25T07:53:15;11.18;;;2.60;;
26536;SDS011;14204;51.262;5.488;2023-04-25T07:55:42;12.00;;;2.88;;
26536;SDS011;14204;51.262;5.488;2023-04-25T07:58:08;13.55;;;3.28;;
26536;SDS011;14204;51.262;5.488;2023-04-25T08:00:35;11.18;;;3.65;;
26536;SDS011;14204;51.262;5.488;2023-04-25T08:03:01;13.82;;;2.78;;
26536;SDS011;14204;51.262;5.488;2023-04-25T08:05:28;8.75;;;2.70;;
26536;SDS011;14204;51.262;5.488;2023-04-25T08:07:54;10.55;;;3.20;;
26536;SDS011;14204;51.262;5.488;2023-04-25T08:10:20;14.15;;;3.10;;
26536;SDS011;14204;51.262;5.488;2023-04-25T08:12:48;11.63;;;3.00;;
26536;SDS011;14204;51.262;5.488;2023-04-25T08:15:14;12.25;;;3.00;;
26536;SDS011;14204;51.262;5.488;2023-04-25T08:17:40;10.30;;;3.35;;
26536;SDS011;14204;51.262;5.488;2023-04-25T08:20:06;9.10;;;3.30;;
26536;SDS011;14204;51.262;5.488;2023-04-25T08:22:32;9.77;;;3.95;;
26536;SDS011;14204;51.262;5.488;2023-04-25T08:24:59;14.82;;;3.60;;
26536;SDS011;14204;51.262;5.488;2023-04-25T08:27:24;11.75;;;3.28;;
26536;SDS011;14204;51.262;5.488;2023-04-25T08:29:50;8.48;;;3.38;;
26536;SDS011;14204;51.262;5.488;2023-04-25T08:32:16;12.73;;;3.60;;
26536;SDS011;14204;51.262;5.488;2023-04-25T08:34:42;14.82;;;2.90;;
26536;SDS011;14204;51.262;5.488;2023-04-25T08:37:09;11.10;;;3.03;;
26536;SDS011;14204;51.262;5.488;2023-04-25T08:39:38;16.52;;;3.63;;
26536;SDS011;14204;51.262;5.488;2023-04-25T08:42:05;14.05;;;3.30;;
26536;SDS011;14204;51.262;5.488;2023-04-25T08:44:35;10.48;;;3.35;;
26536;SDS011;14204;51.262;5.488;2023-04-25T08:47:02;11.18;;;3.42;;
26536;SDS011;14204;51.262;5.488;2023-04-25T08:49:30;15.05;;;3.25;;
26536;SDS011;14204;51.262;5.488;2023-04-25T08:51:58;11.60;;;2.83;;
26536;SDS011;14204;51.262;5.488;2023-04-25T08:54:25;17.60;;;2.95;;
26536;SDS011;14204;51.262;5.488;2023-04-25T08:56:54;12.02;;;2.72;;
26536;SDS011;14204;51.262;5.488;2023-04-25T08:59:21;13.88;;;3.08;;
26536;SDS011;14204;51.262;5.488;2023-04-25T09:01:48;11.88;;;2.70;;
26536;SDS011;14204;51.262;5.488;2023-04-25T09:04:15;22.02;;;3.65;;
26536;SDS011;14204;51.262;5.488;2023-04-25T09:06:41;17.17;;;2.95;;
26536;SDS011;14204;51.262;5.488;2023-04-25T09:09:07;11.52;;;2.88;;
26536;SDS011;14204;51.262;5.488;2023-04-25T09:11:34;10.02;;;2.58;;
26536;SDS011;14204;51.262;5.488;2023-04-25T09:14:17;10.77;;;2.47;;
26536;SDS011;14204;51.262;5.488;2023-04-25T09:17:08;10.52;;;2.83;;
26536;SDS011;14204;51.262;5.488;2023-04-25T09:19:36;11.95;;;2.45;;
26536;SDS011;14204;51.262;5.488;2023-04-25T09:22:05;11.05;;;2.90;;
26536;SDS011;14204;51.262;5.488;2023-04-25T09:27:03;12.70;;;3.45;;
26536;SDS011;14204;51.262;5.488;2023-04-25T09:29:30;9.13;;;2.38;;
26536;SDS011;14204;51.262;5.488;2023-04-25T09:34:42;11.63;;;2.55;;
26536;SDS011;14204;51.262;5.488;2023-04-25T09:37:09;8.95;;;2.47;;
26536;SDS011;14204;51.262;5.488;2023-04-25T09:39:36;11.55;;;2.45;;
26536;SDS011;14204;51.262;5.488;2023-04-25T09:42:03;12.30;;;2.40;;
26536;SDS011;14204;51.262;5.488;2023-04-25T09:44:29;11.65;;;2.30;;
26536;SDS011;14204;51.262;5.488;2023-04-25T09:46:55;9.50;;;3.10;;
26536;SDS011;14204;51.262;5.488;2023-04-25T09:49:22;14.90;;;2.92;;
26536;SDS011;14204;51.262;5.488;2023-04-25T09:51:54;8.95;;;2.22;;
26536;SDS011;14204;51.262;5.488;2023-04-25T09:54:22;13.30;;;2.63;;
26536;SDS011;14204;51.262;5.488;2023-04-25T09:56:51;8.18;;;2.00;;
26536;SDS011;14204;51.262;5.488;2023-04-25T09:59:21;13.30;;;2.13;;
26536;SDS011;14204;51.262;5.488;2023-04-25T10:01:48;10.20;;;2.05;;
26536;SDS011;14204;51.262;5.488;2023-04-25T10:04:22;10.30;;;2.45;;
26536;SDS011;14204;51.262;5.488;2023-04-25T10:06:51;8.55;;;2.25;;
26536;SDS011;14204;51.262;5.488;2023-04-25T10:09:20;10.35;;;2.25;;
26536;SDS011;14204;51.262;5.488;2023-04-25T10:11:46;8.38;;;1.90;;
26536;SDS011;14204;51.262;5.488;2023-04-25T10:14:16;7.40;;;1.75;;
26536;SDS011;14204;51.262;5.488;2023-04-25T10:16:43;6.07;;;1.55;;
26536;SDS011;14204;51.262;5.488;2023-04-25T10:19:10;7.07;;;1.92;;
26536;SDS011;14204;51.262;5.488;2023-04-25T10:21:40;5.93;;;1.83;;
26536;SDS011;14204;51.262;5.488;2023-04-25T10:24:23;7.88;;;1.52;;
26536;SDS011;14204;51.262;5.488;2023-04-25T10:26:50;5.68;;;1.80;;
26536;SDS011;14204;51.262;5.488;2023-04-25T10:29:26;10.20;;;2.17;;
26536;SDS011;14204;51.262;5.488;2023-04-25T10:31:52;14.75;;;2.72;;
26536;SDS011;14204;51.262;5.488;2023-04-25T10:34:19;5.55;;;2.00;;
26536;SDS011;14204;51.262;5.488;2023-04-25T10:36:49;10.32;;;2.17;;
26536;SDS011;14204;51.262;5.488;2023-04-25T10:39:24;10.45;;;1.95;;
26536;SDS011;14204;51.262;5.488;2023-04-25T10:41:55;6.18;;;1.80;;
26536;SDS011;14204;51.262;5.488;2023-04-25T10:44:23;8.10;;;1.95;;
26536;SDS011;14204;51.262;5.488;2023-04-25T10:46:52;9.52;;;1.92;;
26536;SDS011;14204;51.262;5.488;2023-04-25T10:49:42;5.13;;;1.42;;
26536;SDS011;14204;51.262;5.488;2023-04-25T10:52:26;5.57;;;1.60;;
26536;SDS011;14204;51.262;5.488;2023-04-25T10:57:28;4.95;;;1.60;;
26536;SDS011;14204;51.262;5.488;2023-04-25T11:00:18;5.38;;;1.65;;
26536;SDS011;14204;51.262;5.488;2023-04-25T11:02:52;6.72;;;1.60;;
26536;SDS011;14204;51.262;5.488;2023-04-25T11:05:34;4.88;;;1.50;;
26536;SDS011;14204;51.262;5.488;2023-04-25T11:08:01;5.35;;;1.80;;
26536;SDS011;14204;51.262;5.488;2023-04-25T11:10:32;4.97;;;1.40;;
26536;SDS011;14204;51.262;5.488;2023-04-25T11:13:00;4.30;;;1.48;;
26536;SDS011;14204;51.262;5.488;2023-04-25T11:15:26;5.55;;;2.00;;
26536;SDS011;14204;51.262;5.488;2023-04-25T11:17:52;7.22;;;2.33;;
26536;SDS011;14204;51.262;5.488;2023-04-25T11:20:18;4.93;;;1.95;;
26536;SDS011;14204;51.262;5.488;2023-04-25T11:22:45;5.20;;;2.03;;
26536;SDS011;14204;51.262;5.488;2023-04-25T11:25:12;7.53;;;1.70;;
26536;SDS011;14204;51.262;5.488;2023-04-25T11:27:53;8.57;;;2.58;;
26536;SDS011;14204;51.262;5.488;2023-04-25T11:30:20;6.75;;;2.20;;
26536;SDS011;14204;51.262;5.488;2023-04-25T11:32:46;8.35;;;2.05;;
26536;SDS011;14204;51.262;5.488;2023-04-25T11:35:12;10.55;;;1.60;;
26536;SDS011;14204;51.262;5.488;2023-04-25T11:37:39;7.55;;;1.90;;
26536;SDS011;14204;51.262;5.488;2023-04-25T11:40:05;7.03;;;1.95;;
26536;SDS011;14204;51.262;5.488;2023-04-25T11:42:33;7.03;;;1.90;;
26536;SDS011;14204;51.262;5.488;2023-04-25T11:44:59;9.18;;;2.10;;
26536;SDS011;14204;51.262;5.488;2023-04-25T11:47:31;5.82;;;1.85;;
26536;SDS011;14204;51.262;5.488;2023-04-25T11:49:58;4.30;;;1.33;;
26536;SDS011;14204;51.262;5.488;2023-04-25T11:55:17;6.20;;;2.22;;
26536;SDS011;14204;51.262;5.488;2023-04-25T11:57:45;6.75;;;1.65;;
26536;SDS011;14204;51.262;5.488;2023-04-25T12:00:16;8.10;;;1.48;;
26536;SDS011;14204;51.262;5.488;2023-04-25T12:02:47;5.30;;;1.80;;
26536;SDS011;14204;51.262;5.488;2023-04-25T12:05:17;8.50;;;1.20;;
26536;SDS011;14204;51.262;5.488;2023-04-25T12:07:43;5.40;;;1.40;;
26536;SDS011;14204;51.262;5.488;2023-04-25T12:10:13;4.45;;;1.15;;
26536;SDS011;14204;51.262;5.488;2023-04-25T12:12:44;7.13;;;1.50;;
26536;SDS011;14204;51.262;5.488;2023-04-25T12:15:14;4.38;;;1.58;;
26536;SDS011;14204;51.262;5.488;2023-04-25T12:17:47;4.70;;;1.30;;
26536;SDS011;14204;51.262;5.488;2023-04-25T12:20:24;3.33;;;1.60;;
26536;SDS011;14204;51.262;5.488;2023-04-25T12:22:51;5.43;;;1.40;;
26536;SDS011;14204;51.262;5.488;2023-04-25T12:30:59;5.68;;;1.25;;
26536;SDS011;14204;51.262;5.488;2023-04-25T12:33:24;5.90;;;1.60;;
26536;SDS011;14204;51.262;5.488;2023-04-25T12:35:51;7.40;;;1.40;;
26536;SDS011;14204;51.262;5.488;2023-04-25T12:39:00;7.40;;;1.40;;
26536;SDS011;14204;51.262;5.488;2023-04-25T12:41:07;9.32;;;1.75;;
26536;SDS011;14204;51.262;5.488;2023-04-25T12:43:34;8.23;;;1.58;;
26536;SDS011;14204;51.262;5.488;2023-04-25T12:46:00;7.72;;;1.45;;
26536;SDS011;14204;51.262;5.488;2023-04-25T12:48:26;6.25;;;1.50;;
26536;SDS011;14204;51.262;5.488;2023-04-25T12:50:52;8.52;;;1.50;;
26536;SDS011;14204;51.262;5.488;2023-04-25T12:53:21;6.55;;;1.58;;
26536;SDS011;14204;51.262;5.488;2023-04-25T12:55:48;4.53;;;1.50;;
26536;SDS011;14204;51.262;5.488;2023-04-25T12:58:14;4.57;;;1.35;;
26536;SDS011;14204;51.262;5.488;2023-04-25T13:00:41;7.35;;;1.70;;
26536;SDS011;14204;51.262;5.488;2023-04-25T13:03:07;4.38;;;1.08;;
26536;SDS011;14204;51.262;5.488;2023-04-25T13:05:33;4.22;;;1.33;;
26536;SDS011;14204;51.262;5.488;2023-04-25T13:07:59;6.47;;;1.55;;
26536;SDS011;14204;51.262;5.488;2023-04-25T13:10:25;6.30;;;1.42;;
26536;SDS011;14204;51.262;5.488;2023-04-25T13:12:51;4.88;;;1.23;;
26536;SDS011;14204;51.262;5.488;2023-04-25T13:15:16;7.88;;;1.20;;
26536;SDS011;14204;51.262;5.488;2023-04-25T13:17:42;3.78;;;1.55;;
26536;SDS011;14204;51.262;5.488;2023-04-25T13:20:08;3.72;;;1.20;;
26536;SDS011;14204;51.262;5.488;2023-04-25T13:22:38;4.68;;;1.48;;
26536;SDS011;14204;51.262;5.488;2023-04-25T13:25:05;7.82;;;1.55;;
26536;SDS011;14204;51.262;5.488;2023-04-25T13:27:32;9.82;;;1.27;;
26536;SDS011;14204;51.262;5.488;2023-04-25T13:30:00;5.20;;;1.63;;
26536;SDS011;14204;51.262;5.488;2023-04-25T13:32:29;7.40;;;1.75;;
26536;SDS011;14204;51.262;5.488;2023-04-25T13:34:55;4.13;;;1.35;;
26536;SDS011;14204;51.262;5.488;2023-04-25T13:37:21;7.22;;;1.80;;
26536;SDS011;14204;51.262;5.488;2023-04-25T13:39:49;5.85;;;1.35;;
26536;SDS011;14204;51.262;5.488;2023-04-25T13:42:15;6.95;;;1.35;;
26536;SDS011;14204;51.262;5.488;2023-04-25T13:44:41;4.22;;;1.30;;
26536;SDS011;14204;51.262;5.488;2023-04-25T13:47:06;7.97;;;1.25;;
26536;SDS011;14204;51.262;5.488;2023-04-25T13:49:32;4.85;;;0.98;;
26536;SDS011;14204;51.262;5.488;2023-04-25T13:51:57;9.13;;;1.48;;
26536;SDS011;14204;51.262;5.488;2023-04-25T13:54:23;5.65;;;1.17;;
26536;SDS011;14204;51.262;5.488;2023-04-25T13:56:49;3.67;;;1.20;;
26536;SDS011;14204;51.262;5.488;2023-04-25T13:59:15;3.45;;;1.05;;
26536;SDS011;14204;51.262;5.488;2023-04-25T14:01:41;7.75;;;1.35;;
26536;SDS011;14204;51.262;5.488;2023-04-25T14:04:06;6.50;;;1.38;;
26536;SDS011;14204;51.262;5.488;2023-04-25T14:06:32;4.28;;;1.02;;
26536;SDS011;14204;51.262;5.488;2023-04-25T14:08:58;4.93;;;1.27;;
26536;SDS011;14204;51.262;5.488;2023-04-25T14:11:26;4.65;;;1.85;;
26536;SDS011;14204;51.262;5.488;2023-04-25T14:13:51;3.10;;;1.05;;
26536;SDS011;14204;51.262;5.488;2023-04-25T14:16:17;1.55;;;0.93;;
26536;SDS011;14204;51.262;5.488;2023-04-25T14:18:43;7.78;;;1.63;;
26536;SDS011;14204;51.262;5.488;2023-04-25T14:21:08;4.97;;;1.20;;
26536;SDS011;14204;51.262;5.488;2023-04-25T14:23:34;5.55;;;0.90;;
26536;SDS011;14204;51.262;5.488;2023-04-25T14:26:00;5.60;;;1.05;;
26536;SDS011;14204;51.262;5.488;2023-04-25T14:28:27;7.40;;;1.50;;
26536;SDS011;14204;51.262;5.488;2023-04-25T14:30:52;7.60;;;1.40;;
26536;SDS011;14204;51.262;5.488;2023-04-25T14:33:18;5.65;;;1.50;;
26536;SDS011;14204;51.262;5.488;2023-04-25T14:35:44;5.90;;;1.23;;
26536;SDS011;14204;51.262;5.488;2023-04-25T14:38:09;8.38;;;1.55;;
26536;SDS011;14204;51.262;5.488;2023-04-25T14:40:35;4.72;;;1.10;;
26536;SDS011;14204;51.262;5.488;2023-04-25T14:43:01;4.93;;;1.55;;
26536;SDS011;14204;51.262;5.488;2023-04-25T14:45:27;7.35;;;1.42;;
26536;SDS011;14204;51.262;5.488;2023-04-25T14:47:53;5.15;;;1.50;;
26536;SDS011;14204;51.262;5.488;2023-04-25T14:50:19;4.18;;;1.58;;